createdAt,value
2023-02-05T00:00:41.354Z,1.45
2023-02-05T00:01:41.401Z,1.56
2023-02-05T00:02:41.440Z,1.47
2023-02-05T00:03:41.555Z,1.43
2023-02-05T00:04:41.536Z,1.84
2023-02-05T00:05:41.561Z,1.51
2023-02-05T00:06:41.598Z,1.65
2023-02-05T00:07:41.647Z,1.82
2023-02-05T00:08:41.689Z,1.96
2023-02-05T00:09:41.736Z,1.32
2023-02-05T00:10:41.767Z,1.54
2023-02-05T00:11:41.804Z,1.56
2023-02-05T00:12:41.864Z,1.72
2023-02-05T00:13:41.914Z,1.60
2023-02-05T00:14:41.936Z,1.49
2023-02-05T00:15:41.990Z,1.93
2023-02-05T00:16:42.063Z,1.64
2023-02-05T00:17:42.082Z,1.39
2023-02-05T00:18:42.117Z,1.58
2023-02-05T00:19:42.174Z,1.75
2023-02-05T00:20:42.226Z,1.70
2023-02-05T00:21:42.267Z,1.79
2023-02-05T00:22:42.322Z,1.99
2023-02-05T00:23:42.352Z,1.47
2023-02-05T00:24:42.394Z,1.56
2023-02-05T00:25:42.443Z,1.62
2023-02-05T00:26:42.474Z,1.51
2023-02-05T00:27:42.530Z,1.40
2023-02-05T00:28:42.557Z,2.04
2023-02-05T00:29:42.606Z,1.61
2023-02-05T00:30:42.710Z,1.27
2023-02-05T00:31:42.784Z,1.52
2023-02-05T00:32:42.720Z,1.47
2023-02-05T00:33:42.767Z,1.34
2023-02-05T00:34:42.807Z,1.60
2023-02-05T00:35:42.845Z,1.40
2023-02-05T00:36:42.897Z,1.34
2023-02-05T00:37:42.935Z,1.69
2023-02-05T00:38:42.984Z,1.40
2023-02-05T00:39:43.034Z,1.63
2023-02-05T00:40:43.079Z,1.34
2023-02-05T00:41:43.110Z,1.46
2023-02-05T00:42:43.153Z,1.43
2023-02-05T00:43:43.212Z,1.59
2023-02-05T00:44:43.245Z,1.54
2023-02-05T00:45:43.308Z,1.27
2023-02-05T00:46:43.343Z,1.79
2023-02-05T00:47:43.385Z,1.90
2023-02-05T00:48:43.426Z,1.49
2023-02-05T00:49:43.482Z,1.50
2023-02-05T00:50:43.525Z,1.50
2023-02-05T00:51:43.595Z,1.36
2023-02-05T00:52:43.633Z,1.82
2023-02-05T00:53:43.684Z,1.49
2023-02-05T00:54:43.720Z,1.54
2023-02-05T00:55:43.797Z,1.63
2023-02-05T00:56:43.831Z,1.49
2023-02-05T00:57:43.877Z,1.46
2023-02-05T00:58:43.919Z,1.61
2023-02-05T00:59:43.978Z,1.62
2023-02-05T01:00:44.017Z,1.76
2023-02-05T01:01:44.135Z,1.61
2023-02-05T01:02:44.130Z,1.57
2023-02-05T01:03:44.163Z,1.56
2023-02-05T01:04:44.205Z,1.44
2023-02-05T01:05:44.255Z,1.40
2023-02-05T01:06:44.302Z,1.59
2023-02-05T01:07:44.359Z,1.61
2023-02-05T01:08:44.421Z,1.45
2023-02-05T01:09:44.442Z,1.43
2023-02-05T01:10:44.510Z,1.89
2023-02-05T01:11:44.556Z,1.60
2023-02-05T01:12:44.596Z,1.95
2023-02-05T01:13:44.637Z,1.80
2023-02-05T01:14:44.673Z,1.64
2023-02-05T01:15:44.733Z,1.48
2023-02-05T01:16:44.767Z,1.41
2023-02-05T01:17:44.826Z,1.71
2023-02-05T01:18:44.859Z,1.19
2023-02-05T01:19:44.899Z,1.57
2023-02-05T01:20:44.939Z,1.87
2023-02-05T01:21:44.979Z,1.64
2023-02-05T01:22:45.026Z,1.45
2023-02-05T01:23:45.067Z,1.99
2023-02-05T01:24:45.118Z,1.67
2023-02-05T01:25:45.163Z,1.69
2023-02-05T01:26:45.206Z,1.72
2023-02-05T01:27:45.281Z,1.72
2023-02-05T01:28:45.293Z,1.56
2023-02-05T01:29:45.350Z,1.34
2023-02-05T01:30:45.429Z,1.36
2023-02-05T01:31:45.499Z,1.51
2023-02-05T01:32:45.489Z,1.95
2023-02-05T01:33:45.534Z,1.41
2023-02-05T01:34:45.592Z,1.74
2023-02-05T01:35:45.623Z,1.61
2023-02-05T01:36:45.683Z,1.80
2023-02-05T01:37:45.728Z,1.59
2023-02-05T01:38:45.781Z,1.33
2023-02-05T01:39:45.821Z,1.71
2023-02-05T01:40:45.870Z,1.65
2023-02-05T01:41:45.929Z,2.00
2023-02-05T01:42:45.957Z,1.98
2023-02-05T01:43:46.005Z,1.39
2023-02-05T01:44:46.056Z,1.46
2023-02-05T01:45:46.102Z,1.35
2023-02-05T01:46:46.150Z,1.65
2023-02-05T01:47:46.200Z,1.67
2023-02-05T01:48:46.248Z,1.66
2023-02-05T01:49:46.299Z,1.35
2023-02-05T01:50:46.340Z,1.27
2023-02-05T01:51:46.380Z,1.38
2023-02-05T01:52:46.441Z,1.67
2023-02-05T01:53:46.500Z,1.25
2023-02-05T01:54:46.534Z,1.43
2023-02-05T01:55:46.585Z,1.51
2023-02-05T01:56:46.630Z,1.57
2023-02-05T01:57:46.684Z,1.52
2023-02-05T01:58:46.731Z,1.39
2023-02-05T01:59:46.777Z,1.28
2023-02-05T02:00:46.826Z,1.61
2023-02-05T02:01:46.892Z,1.38
2023-02-05T02:02:46.925Z,1.55
2023-02-05T02:03:46.981Z,1.65
2023-02-05T02:04:47.103Z,1.73
2023-02-05T02:05:47.065Z,1.93
2023-02-05T02:06:47.116Z,1.10
2023-02-05T02:07:47.162Z,1.33
2023-02-05T02:08:47.207Z,1.36
2023-02-05T02:09:47.242Z,1.66
2023-02-05T02:10:47.282Z,1.92
2023-02-05T02:11:47.321Z,1.41
2023-02-05T02:12:47.367Z,1.68
2023-02-05T02:13:47.412Z,1.92
2023-02-05T02:14:47.455Z,1.10
2023-02-05T02:15:47.582Z,1.62
2023-02-05T02:16:47.546Z,1.21
2023-02-05T02:17:47.584Z,1.32
2023-02-05T02:18:47.633Z,1.68
2023-02-05T02:19:47.683Z,1.50
2023-02-05T02:20:47.714Z,1.70
2023-02-05T02:21:47.750Z,1.53
2023-02-05T02:22:47.800Z,1.49
2023-02-05T02:23:47.853Z,1.43
2023-02-05T02:24:47.891Z,1.38
2023-02-05T02:25:47.933Z,1.14
2023-02-05T02:26:47.980Z,1.09
2023-02-05T02:27:48.072Z,1.51
2023-02-05T02:28:48.075Z,1.54
2023-02-05T02:29:48.109Z,1.59
2023-02-05T02:30:48.252Z,0.94
2023-02-05T02:31:48.189Z,1.46
2023-02-05T02:32:48.225Z,1.45
2023-02-05T02:33:48.275Z,1.42
2023-02-05T02:34:48.336Z,1.14
2023-02-05T02:35:48.365Z,1.61
2023-02-05T02:36:48.393Z,1.46
2023-02-05T02:37:48.413Z,1.33
2023-02-05T02:38:48.463Z,1.43
2023-02-05T02:39:48.499Z,1.19
2023-02-05T02:40:48.531Z,1.41
2023-02-05T02:41:48.568Z,1.58
2023-02-05T02:42:48.606Z,1.25
2023-02-05T02:43:48.658Z,1.69
2023-02-05T02:44:48.706Z,1.48
2023-02-05T02:45:48.756Z,1.59
2023-02-05T02:46:48.847Z,1.42
2023-02-05T02:47:48.852Z,1.62
2023-02-05T02:48:48.889Z,1.58
2023-02-05T02:49:48.947Z,1.55
2023-02-05T02:50:48.987Z,1.30
2023-02-05T02:51:49.026Z,2.02
2023-02-05T02:52:49.070Z,1.59
2023-02-05T02:53:49.114Z,1.63
2023-02-05T02:54:49.149Z,1.52
2023-02-05T02:55:49.200Z,1.50
2023-02-05T02:56:49.242Z,1.53
2023-02-05T02:57:49.279Z,1.19
2023-02-05T02:58:49.322Z,1.22
2023-02-05T02:59:49.368Z,1.47
2023-02-05T03:00:49.458Z,1.24
2023-02-05T03:01:53.712Z,1.35
2023-02-05T03:02:49.453Z,1.28
2023-02-05T03:03:49.469Z,1.78
2023-02-05T03:04:49.461Z,1.35
2023-02-05T03:05:49.466Z,1.59
2023-02-05T03:06:49.452Z,1.26
2023-02-05T03:07:49.455Z,1.38
2023-02-05T03:08:49.445Z,1.23
2023-02-05T03:09:49.459Z,1.31
2023-02-05T03:10:49.452Z,1.31
2023-02-05T03:11:49.443Z,1.23
2023-02-05T03:12:49.448Z,1.52
2023-02-05T03:13:49.463Z,1.51
2023-02-05T03:14:49.467Z,1.47
2023-02-05T03:15:49.465Z,1.60
2023-02-05T03:16:49.471Z,1.21
2023-02-05T03:17:49.458Z,1.42
2023-02-05T03:18:49.463Z,1.14
2023-02-05T03:19:49.470Z,1.46
2023-02-05T03:20:49.457Z,1.57
2023-02-05T03:21:49.463Z,1.56
2023-02-05T03:22:49.465Z,1.78
2023-02-05T03:23:49.471Z,1.17
2023-02-05T03:24:49.479Z,1.61
2023-02-05T03:25:49.479Z,1.51
2023-02-05T03:26:49.533Z,1.58
2023-02-05T03:27:49.576Z,1.19
2023-02-05T03:28:49.621Z,1.51
2023-02-05T03:29:49.655Z,1.48
2023-02-05T03:30:49.786Z,1.49
2023-02-05T03:31:49.805Z,1.32
2023-02-05T03:32:49.795Z,1.31
2023-02-05T03:33:49.820Z,1.47
2023-02-05T03:34:49.863Z,1.53
2023-02-05T03:35:49.914Z,1.34
2023-02-05T03:36:49.953Z,1.32
2023-02-05T03:37:49.988Z,1.22
2023-02-05T03:38:50.030Z,1.42
2023-02-05T03:39:50.070Z,1.32
2023-02-05T03:40:50.108Z,1.29
2023-02-05T03:41:50.170Z,1.50
2023-02-05T03:42:50.185Z,1.52
2023-02-05T03:43:50.234Z,1.65
2023-02-05T03:44:50.294Z,1.18
2023-02-05T03:45:50.360Z,1.28
2023-02-05T03:46:50.345Z,1.43
2023-02-05T03:47:50.397Z,1.40
2023-02-05T03:48:50.437Z,1.41
2023-02-05T03:49:50.488Z,1.46
2023-02-05T03:50:50.513Z,1.25
2023-02-05T03:51:50.552Z,1.49
2023-02-05T03:52:50.619Z,1.61
2023-02-05T03:53:50.648Z,1.48
2023-02-05T03:54:50.676Z,1.46
2023-02-05T03:55:50.720Z,1.66
2023-02-05T03:56:50.768Z,1.22
2023-02-05T03:57:50.812Z,1.18
2023-02-05T03:58:50.852Z,1.52
2023-02-05T03:59:50.875Z,1.19
2023-02-05T04:00:50.954Z,1.44
2023-02-05T04:01:51.533Z,1.58
2023-02-05T04:02:51.022Z,1.21
2023-02-05T04:03:51.070Z,1.10
2023-02-05T04:04:51.192Z,1.63
2023-02-05T04:05:51.160Z,1.75
2023-02-05T04:06:51.204Z,1.61
2023-02-05T04:07:51.252Z,1.50
2023-02-05T04:08:51.275Z,1.39
2023-02-05T04:09:51.326Z,1.32
2023-02-05T04:10:51.373Z,1.42
2023-02-05T04:11:51.410Z,1.28
2023-02-05T04:12:51.461Z,1.41
2023-02-05T04:13:51.507Z,1.10
2023-02-05T04:14:51.550Z,1.52
2023-02-05T04:15:51.594Z,1.27
2023-02-05T04:16:52.047Z,1.27
2023-02-05T04:17:51.687Z,1.30
2023-02-05T04:18:51.732Z,1.17
2023-02-05T04:19:51.754Z,1.39
2023-02-05T04:20:51.810Z,1.05
2023-02-05T04:21:51.855Z,1.14
2023-02-05T04:22:51.888Z,1.30
2023-02-05T04:23:51.975Z,1.49
2023-02-05T04:24:51.974Z,1.44
2023-02-05T04:25:52.040Z,1.62
2023-02-05T04:26:52.077Z,1.41
2023-02-05T04:27:52.225Z,1.27
2023-02-05T04:28:52.164Z,1.50
2023-02-05T04:29:52.199Z,1.38
2023-02-05T04:30:52.255Z,1.31
2023-02-05T04:31:52.342Z,1.57
2023-02-05T04:32:52.322Z,1.60
2023-02-05T04:33:52.376Z,1.39
2023-02-05T04:34:52.408Z,1.49
2023-02-05T04:35:52.451Z,1.26
2023-02-05T04:36:52.487Z,1.54
2023-02-05T04:37:52.521Z,1.59
2023-02-05T04:38:53.550Z,1.35
2023-02-05T04:39:52.608Z,1.32
2023-02-05T04:40:52.641Z,1.12
2023-02-05T04:41:52.687Z,1.28
2023-02-05T04:42:52.715Z,1.24
2023-02-05T04:43:52.746Z,1.39
2023-02-05T04:44:52.802Z,1.32
2023-02-05T04:45:52.856Z,1.54
2023-02-05T04:46:52.883Z,1.26
2023-02-05T04:47:52.939Z,1.31
2023-02-05T04:48:52.972Z,1.30
2023-02-05T04:49:53.017Z,1.17
2023-02-05T04:50:53.049Z,1.35
2023-02-05T04:51:53.095Z,1.49
2023-02-05T04:52:53.133Z,1.03
2023-02-05T04:53:53.165Z,1.47
2023-02-05T04:54:53.203Z,1.16
2023-02-05T04:55:53.250Z,1.53
2023-02-05T04:56:53.288Z,1.44
2023-02-05T04:57:53.332Z,1.65
2023-02-05T04:58:53.362Z,1.58
2023-02-05T04:59:53.422Z,1.42
2023-02-05T05:00:53.487Z,1.24
2023-02-05T05:01:53.519Z,1.25
2023-02-05T05:02:53.571Z,1.19
2023-02-05T05:03:53.624Z,1.09
2023-02-05T05:04:53.664Z,1.43
2023-02-05T05:05:53.706Z,1.41
2023-02-05T05:06:53.758Z,1.33
2023-02-05T05:07:53.806Z,1.34
2023-02-05T05:08:53.856Z,1.54
2023-02-05T05:09:53.907Z,1.42
2023-02-05T05:10:53.966Z,1.31
2023-02-05T05:11:53.998Z,1.14
2023-02-05T05:12:54.055Z,1.28
2023-02-05T05:13:54.112Z,1.07
2023-02-05T05:14:54.155Z,1.13
2023-02-05T05:15:54.241Z,1.16
2023-02-05T06:44:58.124Z,1.50
2023-02-05T06:45:58.164Z,1.25
2023-02-05T06:46:58.190Z,1.37
2023-02-05T06:47:58.279Z,0.99
2023-02-05T06:48:58.281Z,1.12
2023-02-05T06:49:58.318Z,1.15
2023-02-05T06:50:58.353Z,1.62
2023-02-05T06:51:58.399Z,1.16
2023-02-05T06:52:58.437Z,1.85
2023-02-05T06:53:58.489Z,1.11
2023-02-05T06:54:58.521Z,1.17
2023-02-05T06:55:58.565Z,1.16
2023-02-05T06:56:58.612Z,1.03
2023-02-05T06:57:58.648Z,1.31
2023-02-05T06:58:58.676Z,1.37
2023-02-05T06:59:58.721Z,1.66
2023-02-05T07:00:58.753Z,1.32
2023-02-05T07:01:58.821Z,1.50
2023-02-05T07:02:58.849Z,1.12
2023-02-05T07:03:58.875Z,1.52
2023-02-05T07:04:58.906Z,1.60
2023-02-05T07:05:58.928Z,1.22
2023-02-05T07:06:58.966Z,1.20
2023-02-05T07:07:59.007Z,1.60
2023-02-05T07:08:59.051Z,1.19
2023-02-05T07:09:59.071Z,1.45
2023-02-05T07:10:59.105Z,1.62
2023-02-05T07:11:59.151Z,1.30
2023-02-05T07:12:59.197Z,0.90
2023-02-05T07:13:59.247Z,1.23
2023-02-05T07:14:59.270Z,1.13
2023-02-05T07:15:59.318Z,1.22
2023-02-05T07:16:59.342Z,1.14
2023-02-05T07:17:59.426Z,1.28
2023-02-05T07:18:59.418Z,1.28
2023-02-05T07:19:59.466Z,1.24
2023-02-05T07:20:59.502Z,1.60
2023-02-05T07:21:59.549Z,1.35
2023-02-05T07:22:59.593Z,1.34
2023-02-05T07:23:59.644Z,1.25
2023-02-05T07:24:59.691Z,1.10
2023-02-05T07:25:59.718Z,1.45
2023-02-05T07:26:59.762Z,1.26
2023-02-05T07:27:59.858Z,1.37
2023-02-05T07:28:59.842Z,1.45
2023-02-05T07:29:59.877Z,1.21
2023-02-05T07:31:00.294Z,1.09
2023-02-05T07:31:59.966Z,1.34
2023-02-05T07:32:59.979Z,1.22
2023-02-05T08:09:01.109Z,1.29
2023-02-05T08:10:01.132Z,1.55
2023-02-05T08:11:01.167Z,1.51
2023-02-05T08:12:01.212Z,1.13
2023-02-05T08:13:01.228Z,1.64
2023-02-05T08:14:01.285Z,1.14
2023-02-05T08:15:01.301Z,1.60
2023-02-05T08:16:01.347Z,1.60
2023-02-05T08:17:01.359Z,1.58
2023-02-05T08:18:01.393Z,1.47
2023-02-05T08:19:01.444Z,1.28
2023-02-05T08:20:01.454Z,1.69
2023-02-05T08:21:01.494Z,1.13
2023-02-05T08:22:01.551Z,1.56
2023-02-05T08:23:01.552Z,1.20
2023-02-05T08:24:01.582Z,1.49
2023-02-05T08:25:01.637Z,1.35
2023-02-05T08:26:01.637Z,1.32
2023-02-05T08:27:01.683Z,1.40
2023-02-05T08:28:01.722Z,1.34
2023-02-05T08:29:01.727Z,1.66
2023-02-05T08:30:01.785Z,1.55
2023-02-05T08:31:01.826Z,1.44
2023-02-05T08:32:01.838Z,1.60
2023-02-05T08:33:01.860Z,1.58
2023-02-05T08:34:01.892Z,1.45
2023-02-05T08:35:01.922Z,1.71
2023-02-05T08:36:01.960Z,1.62
2023-02-05T08:37:01.990Z,1.59
2023-02-05T08:38:02.564Z,1.60
2023-02-05T08:39:02.053Z,1.31
2023-02-05T08:40:02.124Z,1.22
2023-02-05T08:41:02.109Z,1.70
2023-02-05T08:42:02.134Z,1.57
2023-02-05T08:43:02.164Z,1.61
2023-02-05T08:44:02.200Z,1.97
2023-02-05T08:45:02.235Z,1.26
2023-02-05T08:46:02.289Z,1.49
2023-02-05T08:47:02.269Z,1.95
2023-02-05T08:48:02.296Z,1.65
2023-02-05T08:49:02.333Z,1.57
2023-02-05T08:50:02.340Z,1.59
2023-02-05T08:51:02.352Z,1.65
2023-02-05T08:52:02.390Z,1.52
2023-02-05T08:53:02.419Z,1.71
2023-02-05T08:54:02.441Z,1.50
2023-02-05T08:55:02.474Z,1.71
2023-02-05T08:56:02.491Z,1.42
2023-02-05T08:57:02.530Z,2.01
2023-02-05T08:58:02.545Z,1.67
2023-02-05T08:59:02.575Z,1.69
2023-02-05T09:00:02.600Z,1.77
2023-02-05T09:01:02.653Z,2.13
2023-02-05T09:02:02.630Z,1.83
2023-02-05T09:03:02.644Z,1.90
2023-02-05T09:04:02.705Z,2.00
2023-02-05T09:05:09.085Z,1.89
2023-02-05T09:06:03.685Z,1.99
2023-02-05T09:07:02.679Z,1.98
2023-02-05T09:08:02.661Z,1.78
2023-02-05T09:09:02.658Z,1.74
2023-02-05T09:10:02.652Z,1.73
2023-02-05T09:11:02.656Z,1.84
2023-02-05T09:12:02.649Z,1.87
2023-02-05T09:13:02.642Z,1.77
2023-02-05T09:14:02.633Z,1.91
2023-02-05T09:15:02.616Z,1.83
2023-02-05T09:16:02.611Z,1.68
2023-02-05T09:17:02.610Z,1.80
2023-02-05T09:18:03.149Z,2.09
2023-02-05T10:50:04.301Z,1.92
2023-02-05T10:51:04.300Z,2.20
2023-02-05T10:52:04.317Z,2.14
2023-02-05T10:53:04.303Z,2.27
2023-02-05T10:54:04.326Z,2.15
2023-02-05T10:55:04.328Z,1.97
2023-02-05T10:56:04.309Z,1.88
2023-02-05T10:57:04.313Z,2.24
2023-02-05T10:58:04.313Z,1.83
2023-02-05T10:59:04.304Z,2.11
2023-02-05T11:00:04.345Z,2.06
2023-02-05T11:01:04.315Z,1.85
2023-02-05T11:02:04.323Z,1.71
2023-02-05T11:03:04.322Z,1.67
2023-02-05T11:04:04.315Z,2.20
2023-02-05T11:05:04.316Z,1.84
2023-02-05T11:06:04.315Z,1.64
2023-02-05T11:07:04.332Z,2.20
2023-02-05T11:08:04.328Z,1.89
2023-02-05T11:09:04.331Z,1.84
2023-02-05T11:10:04.335Z,1.61
2023-02-05T11:11:04.327Z,1.78
2023-02-05T11:12:04.346Z,1.94
2023-02-05T11:13:04.357Z,1.92
2023-02-05T11:14:04.352Z,1.64
2023-02-05T11:15:04.356Z,1.87
2023-02-05T11:16:04.426Z,1.61
2023-02-05T11:17:04.356Z,1.41
2023-02-05T11:18:04.363Z,1.64
2023-02-05T11:19:04.366Z,1.93
2023-02-05T11:20:04.372Z,1.74
2023-02-05T11:21:04.375Z,2.57
2023-02-05T11:22:04.369Z,1.98
2023-02-05T11:23:04.386Z,1.71
2023-02-05T11:24:04.371Z,1.99
2023-02-05T11:25:04.379Z,1.96
2023-02-05T11:26:04.372Z,1.73
2023-02-05T11:27:04.373Z,1.62
2023-02-05T11:28:04.455Z,1.64
2023-02-05T11:29:04.397Z,1.84
2023-02-05T11:30:04.408Z,2.09
2023-02-05T11:31:04.434Z,1.99
2023-02-05T11:32:04.537Z,1.91
2023-02-05T11:33:04.444Z,1.69
2023-02-05T11:34:04.470Z,1.60
2023-02-05T11:35:04.452Z,1.67
2023-02-05T11:36:04.485Z,2.08
2023-02-05T11:37:04.503Z,1.48
2023-02-05T11:38:06.642Z,1.55
2023-02-05T11:39:04.519Z,1.98
2023-02-05T11:40:04.536Z,1.64
2023-02-05T11:41:04.547Z,1.92
2023-02-05T11:42:04.559Z,1.82
2023-02-05T11:43:04.607Z,2.40
2023-02-05T11:44:04.591Z,1.67
2023-02-05T11:45:04.616Z,1.82
2023-02-05T11:46:04.637Z,2.04
2023-02-05T11:47:04.669Z,1.54
2023-02-05T11:48:04.662Z,1.87
2023-02-05T11:49:04.683Z,2.05
2023-02-05T11:50:04.671Z,1.82
2023-02-05T11:51:04.707Z,1.70
2023-02-05T11:52:04.718Z,2.26
2023-02-05T11:53:04.734Z,1.49
2023-02-05T11:54:04.752Z,2.04
2023-02-05T11:55:04.776Z,1.62
2023-02-05T11:56:04.770Z,2.02
2023-02-05T11:57:04.781Z,1.90
2023-02-05T11:58:04.827Z,1.88
2023-02-05T11:59:04.812Z,2.35
2023-02-05T12:00:04.843Z,1.89
2023-02-05T12:01:04.857Z,2.07
2023-02-05T12:02:04.877Z,2.03
2023-02-05T12:03:04.918Z,1.85
2023-02-05T12:04:04.902Z,1.19
2023-02-05T12:05:04.918Z,2.03
2023-02-05T12:06:04.932Z,1.85
2023-02-05T12:07:04.948Z,2.15
2023-02-05T12:08:04.973Z,2.05
2023-02-05T12:09:04.989Z,1.87
2023-02-05T14:32:08.997Z,2.25
2023-02-05T14:33:08.176Z,1.92
2023-02-05T14:34:17.755Z,2.26
2023-02-05T14:35:09.216Z,2.01
2023-02-05T14:36:08.202Z,1.94
2023-02-05T14:37:08.207Z,2.21
2023-02-05T14:38:08.211Z,1.94
2023-02-05T14:39:08.208Z,1.59
2023-02-05T14:40:08.191Z,1.87
2023-02-05T14:41:08.193Z,2.00
2023-02-05T14:42:08.182Z,1.66
2023-02-05T14:43:11.151Z,1.63
2023-02-05T14:44:08.166Z,2.15
2023-02-05T14:45:08.159Z,1.67
2023-02-05T14:46:08.188Z,1.59
2023-02-05T14:47:08.166Z,1.87
2023-02-05T14:48:08.149Z,1.88
2023-02-05T14:49:08.139Z,1.86
2023-02-05T14:50:08.148Z,2.02
2023-02-05T14:51:08.131Z,1.95
2023-02-05T14:52:08.123Z,1.52
2023-02-05T14:53:08.122Z,1.86
2023-02-05T14:54:08.117Z,1.86
2023-02-05T14:55:08.130Z,1.45
2023-02-05T14:56:08.123Z,1.73
2023-02-05T14:57:08.130Z,1.81
2023-02-05T14:58:08.111Z,2.27
2023-02-05T14:59:08.119Z,1.78
2023-02-05T15:00:08.162Z,1.84
2023-02-05T15:02:08.087Z,1.47
2023-02-05T15:41:08.139Z,2.18
2023-02-05T15:42:08.170Z,2.20
2023-02-05T15:43:08.219Z,1.79
2023-02-05T15:44:08.254Z,1.92
2023-02-05T15:45:08.293Z,1.53
2023-02-05T15:46:08.425Z,1.60
2023-02-05T15:47:08.373Z,1.79
2023-02-05T15:48:08.432Z,1.59
2023-02-05T15:49:08.628Z,2.44
2023-02-05T15:50:08.509Z,2.31
2023-02-05T15:51:08.561Z,2.27
2023-02-05T15:52:08.602Z,1.83
2023-02-05T15:53:08.654Z,1.76
2023-02-05T15:54:08.703Z,1.77
2023-02-05T15:55:08.746Z,1.83
2023-02-05T15:56:08.787Z,1.80
2023-02-05T15:57:08.857Z,1.78
2023-02-05T15:58:08.877Z,1.83
2023-02-05T15:59:08.910Z,1.85
2023-02-05T16:00:08.960Z,1.83
2023-02-05T16:01:09.003Z,1.90
2023-02-05T16:02:09.051Z,2.01
2023-02-05T16:03:09.209Z,1.76
2023-02-05T16:04:09.160Z,1.89
2023-02-05T16:05:09.201Z,1.44
2023-02-05T16:06:09.246Z,1.81
2023-02-05T16:07:09.312Z,1.73
2023-02-05T16:08:09.352Z,2.07
2023-02-05T16:09:09.397Z,1.55
2023-02-05T16:10:09.443Z,2.03
2023-02-05T16:11:09.497Z,1.86
2023-02-05T16:12:09.555Z,1.79
2023-02-05T16:13:09.609Z,2.10
2023-02-05T16:14:09.657Z,1.82
2023-02-05T16:15:09.703Z,2.26
2023-02-05T16:16:09.840Z,1.46
2023-02-05T16:17:09.824Z,2.02
2023-02-05T16:18:09.858Z,2.17
2023-02-05T16:19:09.921Z,1.92
2023-02-05T16:20:09.954Z,1.99
2023-02-05T16:21:09.988Z,1.75
2023-02-05T16:22:10.035Z,1.74
2023-02-05T16:23:10.089Z,1.93
2023-02-05T16:24:10.122Z,2.01
2023-02-05T16:25:10.170Z,2.00
2023-02-05T16:26:10.230Z,1.56
2023-02-05T16:27:10.265Z,1.76
2023-02-05T16:28:10.359Z,1.96
2023-02-05T16:29:24.887Z,2.03
2023-02-05T16:31:10.477Z,1.68
2023-02-05T16:32:10.367Z,1.79
2023-02-05T16:33:10.364Z,1.96
2023-02-05T16:34:10.370Z,1.88
2023-02-05T16:35:10.366Z,1.96
2023-02-05T16:36:10.361Z,2.20
2023-02-05T16:37:10.365Z,1.60
2023-02-05T16:38:10.379Z,1.92
2023-02-05T16:39:10.363Z,1.92
2023-02-05T16:40:10.361Z,1.49
2023-02-05T16:41:10.357Z,1.97
2023-02-05T16:42:10.400Z,2.10
2023-02-05T16:43:10.458Z,2.07
2023-02-05T16:44:10.512Z,2.09
2023-02-05T16:45:10.552Z,2.05
2023-02-05T16:46:10.611Z,2.04
2023-02-05T16:47:10.660Z,1.98
2023-02-05T16:48:10.741Z,1.66
2023-02-05T16:49:10.756Z,1.62
2023-02-05T16:50:10.796Z,1.88
2023-02-05T16:51:10.841Z,2.02
2023-02-05T16:52:10.889Z,1.90
2023-02-05T16:54:11.005Z,1.61
2023-02-05T16:55:11.031Z,2.42
2023-02-05T16:56:11.063Z,2.09
2023-02-05T16:57:11.117Z,1.93
2023-02-05T16:58:11.173Z,1.88
2023-02-05T16:59:11.238Z,2.22
2023-02-05T17:00:11.293Z,2.04
2023-02-05T17:01:11.351Z,1.88
2023-02-05T17:23:11.808Z,1.84
2023-02-05T17:24:11.841Z,1.78
2023-02-05T19:41:18.116Z,1.84
2023-02-05T19:42:18.188Z,1.84
2023-02-05T19:43:18.196Z,2.16
2023-02-05T19:44:18.257Z,1.65
2023-02-05T19:45:18.288Z,1.76
2023-02-05T19:46:18.397Z,1.91
2023-02-05T19:47:18.380Z,2.02
2023-02-05T19:48:18.413Z,2.07
2023-02-05T19:49:18.468Z,2.09
2023-02-05T19:50:18.549Z,2.16
2023-02-05T19:51:18.547Z,1.96
2023-02-05T19:52:18.608Z,2.12
2023-02-05T19:53:18.648Z,2.05
2023-02-05T19:54:21.373Z,2.43
2023-02-05T19:55:18.686Z,2.17
2023-02-05T19:56:18.685Z,1.65
2023-02-05T19:57:18.681Z,1.81
2023-02-05T19:58:18.676Z,1.60
2023-02-05T19:59:18.718Z,1.68
2023-02-05T20:00:18.696Z,2.04
2023-02-05T20:01:18.774Z,2.19
2023-02-05T20:02:18.693Z,2.16
2023-02-05T20:03:18.698Z,1.66
2023-02-05T20:04:18.693Z,1.89
2023-02-05T20:05:18.717Z,1.99
2023-02-05T20:06:18.675Z,2.01
2023-02-05T20:07:18.679Z,1.98
2023-02-05T20:08:19.418Z,1.71
2023-02-05T20:09:18.687Z,1.74
2023-02-05T20:10:18.679Z,1.82
2023-02-05T20:11:18.738Z,1.38
2023-02-05T20:12:18.692Z,1.98
2023-02-05T20:13:18.679Z,1.84
2023-02-05T20:14:19.426Z,2.04
2023-02-05T20:15:18.681Z,2.17
2023-02-05T20:16:18.861Z,1.89
2023-02-05T20:17:18.691Z,1.37
2023-02-05T20:18:18.675Z,1.85
2023-02-05T20:19:18.690Z,1.90
2023-02-05T20:20:32.616Z,1.63
2023-02-05T20:21:19.667Z,2.36
2023-02-05T20:22:18.665Z,2.18
2023-02-05T20:23:18.657Z,2.47
2023-02-05T20:24:18.662Z,2.25
2023-02-05T20:25:18.678Z,1.87
2023-02-05T20:26:18.645Z,2.28
2023-02-05T20:27:18.631Z,2.32
2023-02-05T20:28:18.710Z,1.80
2023-02-05T20:29:18.629Z,1.99
2023-02-05T20:30:18.626Z,1.86
2023-02-05T20:31:18.735Z,2.23
2023-02-05T20:32:18.628Z,1.83
2023-02-05T20:33:18.649Z,2.14
2023-02-05T20:34:18.740Z,1.73
2023-02-05T20:35:18.732Z,1.95
2023-02-05T20:36:18.781Z,2.12
2023-02-05T20:37:19.427Z,1.50
2023-02-05T20:38:19.028Z,2.03
2023-02-05T20:39:18.917Z,2.06
2023-02-05T20:40:18.936Z,2.28
2023-02-05T20:41:18.984Z,1.65
2023-02-05T20:42:19.011Z,2.01
2023-02-05T20:43:19.023Z,1.61
2023-02-05T20:44:19.102Z,1.83
2023-02-05T20:45:19.851Z,1.96
2023-02-05T20:46:19.042Z,2.01
2023-02-05T20:47:18.997Z,1.51
2023-02-05T20:48:19.006Z,2.30
2023-02-05T20:49:18.991Z,1.87
2023-02-05T20:50:18.991Z,1.85
2023-02-05T20:51:19.006Z,1.94
2023-02-05T20:52:18.987Z,2.36
2023-02-05T20:53:18.978Z,1.85
2023-02-05T20:54:18.966Z,1.97
2023-02-05T20:55:19.847Z,2.53
2023-02-05T20:56:18.982Z,2.14
2023-02-05T20:57:20.458Z,2.28
2023-02-05T20:58:19.058Z,2.00
2023-02-05T20:59:19.104Z,1.66
2023-02-05T21:00:19.141Z,1.68
2023-02-05T21:01:19.178Z,2.34
2023-02-05T21:02:19.326Z,2.38
2023-02-05T21:03:19.258Z,1.96
2023-02-05T21:04:20.247Z,2.06
2023-02-05T21:05:19.229Z,1.79
2023-02-05T21:06:19.230Z,1.89
2023-02-05T21:07:19.225Z,1.99
2023-02-05T21:08:19.216Z,2.14
2023-02-05T21:09:19.228Z,2.13
2023-02-05T21:10:19.214Z,1.67
2023-02-05T21:11:19.206Z,2.00
2023-02-05T21:12:19.195Z,2.13
2023-02-05T21:13:19.190Z,2.35
2023-02-05T21:14:19.182Z,1.94
2023-02-05T21:15:19.208Z,2.45
2023-02-05T21:16:19.211Z,1.94
2023-02-05T21:17:19.228Z,2.26
2023-02-05T21:18:19.298Z,2.28
2023-02-05T21:19:19.300Z,2.40
2023-02-05T21:20:19.354Z,2.16
2023-02-05T21:21:19.388Z,2.07
2023-02-05T21:22:19.499Z,2.02
2023-02-05T21:23:19.482Z,1.97
2023-02-05T21:24:19.520Z,2.17
2023-02-05T21:25:19.565Z,2.33
2023-02-05T21:26:19.590Z,2.38
2023-02-05T21:27:19.629Z,2.41
2023-02-05T21:28:19.755Z,1.86
2023-02-05T21:29:19.722Z,2.33
2023-02-05T21:30:19.780Z,2.22
2023-02-05T21:31:19.815Z,2.40
2023-02-05T21:32:19.825Z,1.93
2023-02-05T21:33:19.872Z,1.71
2023-02-05T21:34:19.899Z,1.75
2023-02-05T21:35:19.932Z,1.71
2023-02-05T21:36:19.961Z,2.11
2023-02-05T21:37:20.025Z,2.05
2023-02-05T21:38:20.065Z,2.21
2023-02-05T21:39:20.094Z,2.14
2023-02-05T21:40:20.121Z,2.59
2023-02-05T21:41:20.165Z,2.12
2023-02-05T21:42:20.189Z,1.97
2023-02-05T21:43:20.237Z,1.89
2023-02-05T21:44:20.307Z,2.05
2023-02-05T21:45:20.450Z,1.82
2023-02-05T21:46:20.368Z,2.36
2023-02-05T21:47:20.400Z,2.18
2023-02-05T21:48:20.442Z,1.88
2023-02-05T21:49:20.484Z,1.71
2023-02-05T21:50:20.525Z,2.04
2023-02-05T21:51:20.569Z,2.21
2023-02-05T21:52:20.595Z,1.83
2023-02-05T21:53:20.648Z,1.95
2023-02-05T21:54:20.687Z,1.43
2023-02-05T21:55:20.714Z,2.06
2023-02-05T21:56:20.760Z,2.17
2023-02-05T21:57:20.789Z,1.99
2023-02-05T21:58:20.832Z,2.05
2023-02-05T21:59:20.885Z,1.80
2023-02-05T22:00:20.917Z,2.14
2023-02-05T22:01:21.025Z,1.96
2023-02-05T22:02:21.043Z,2.27
2023-02-05T22:03:21.030Z,2.10
2023-02-05T22:04:21.076Z,2.17
2023-02-05T22:05:21.102Z,2.43
2023-02-05T22:06:21.146Z,2.65
2023-02-05T22:07:21.177Z,2.10
2023-02-05T22:08:21.237Z,1.76
2023-02-05T22:09:21.262Z,2.15
2023-02-05T22:10:21.285Z,2.69
2023-02-05T22:11:21.343Z,2.28
2023-02-05T22:12:21.371Z,2.34
2023-02-05T22:13:21.476Z,2.46
2023-02-05T22:14:21.459Z,2.08
2023-02-05T22:15:21.480Z,3.08
2023-02-05T22:16:21.542Z,2.07
2023-02-05T22:17:21.546Z,1.77
2023-02-05T22:18:21.594Z,2.16
2023-02-05T22:19:21.633Z,2.12
2023-02-05T22:20:21.658Z,2.09
2023-02-05T22:21:21.700Z,2.41
2023-02-05T22:22:21.727Z,2.17
2023-02-05T22:23:21.777Z,2.16
2023-02-05T22:24:21.811Z,1.93
2023-02-05T22:25:21.843Z,2.23
2023-02-05T22:26:21.878Z,1.94
2023-02-05T22:27:21.921Z,2.13
2023-02-05T22:28:21.946Z,2.45
2023-02-05T22:29:21.985Z,2.16
2023-02-05T22:30:22.050Z,2.18
2023-02-05T22:31:22.101Z,1.90
2023-02-05T22:32:22.096Z,2.41
2023-02-05T22:33:22.118Z,2.25